Time;durP1;ratioP1;P1;durP2;ratioP2;P2;SDS_P1;SDS_P2;PMS_P1;PMS_P2;Temp;Humidity;BMP_temperature;BMP_pressure;BME280_temperature;BME280_humidity;BME280_pressure;Samples;Min_cycle;Max_cycle;Signal;HPM_P1;HPM_P2
2022/06/23 05:10:34;;;;;;;19.88;14.20;;;;;;;;;;6283143;22;20210;-89
2022/06/23 05:13:42;;;;;;;22.25;13.80;;;;;;;;;;6271783;22;20177;-90
2022/06/23 05:16:49;;;;;;;21.92;15.20;;;;;;;;;;6276062;22;20165;-90
2022/06/23 05:19:57;;;;;;;21.17;14.25;;;;;;;;;;6291836;22;20166;-90
2022/06/23 05:23:06;;;;;;;21.48;14.38;;;;;;;;;;6269744;22;20201;-91
2022/06/23 05:26:16;;;;;;;21.20;14.63;;;;;;;;;;6274570;22;20181;-89
2022/06/23 05:29:25;;;;;;;25.48;15.02;;;;;;;;;;6253647;22;20239;-91
2022/06/23 05:32:35;;;;;;;22.30;13.90;;;;;;;;;;6273734;22;20150;-93
2022/06/23 05:35:42;;;;;;;21.38;15.32;;;;;;;;;;6275190;22;20218;-89
2022/06/23 05:38:50;;;;;;;22.92;15.32;;;;;;;;;;6276599;22;20169;-90
2022/06/23 05:42:01;;;;;;;23.50;15.20;;;;;;;;;;6274862;22;20605;-91
2022/06/23 05:45:10;;;;;;;23.02;14.25;;;;;;;;;;6271775;22;20165;-90
2022/06/23 05:48:22;;;;;;;24.30;14.32;;;;;;;;;;6276385;22;20171;-90
2022/06/23 05:51:32;;;;;;;21.08;15.00;;;;;;;;;;6274062;22;20205;-89
2022/06/23 05:54:39;;;;;;;22.27;14.43;;;;;;;;;;6273964;22;20171;-91
2022/06/23 05:57:49;;;;;;;23.92;14.73;;;;;;;;;;6273053;22;20170;-92
2022/06/23 06:00:57;;;;;;;23.55;12.95;;;;;;;;;;6269026;22;20166;-90
2022/06/23 06:04:04;;;;;;;26.15;13.25;;;;;;;;;;6273906;22;20166;-91
2022/06/23 06:07:12;;;;;;;20.27;13.98;;;;;;;;;;6275715;22;20165;-91
2022/06/23 06:10:19;;;;;;;22.92;13.18;;;;;;;;;;6262099;22;20190;-91
2022/06/23 06:13:39;;;;;;;20.73;13.88;;;;;;;;;;6263212;22;20175;-90
2022/06/23 06:16:46;;;;;;;21.23;14.68;;;;;;;;;;6262249;22;20182;-90
2022/06/23 06:19:52;;;;;;;21.08;13.88;;;;;;;;;;6263316;22;20211;-90
2022/06/23 06:23:04;;;;;;;22.27;13.10;;;;;;;;;;6265169;22;20213;-91
2022/06/23 06:26:11;;;;;;;25.88;13.40;;;;;;;;;;6259861;22;20624;-91
2022/06/23 06:29:18;;;;;;;26.85;14.55;;;;;;;;;;6260930;22;20167;-91
2022/06/23 06:32:32;;;;;;;29.63;15.02;;;;;;;;;;6257946;23;20170;-90
2022/06/23 06:35:39;;;;;;;24.75;13.85;;;;;;;;;;6262863;22;20175;-90
2022/06/23 06:38:44;;;;;;;20.13;14.02;;;;;;;;;;6264149;22;20619;-91
2022/06/23 06:41:50;;;;;;;25.73;13.95;;;;;;;;;;6260373;23;20191;-91
2022/06/23 06:44:57;;;;;;;24.52;14.88;;;;;;;;;;6264666;22;20167;-91
2022/06/23 06:48:05;;;;;;;22.58;14.68;;;;;;;;;;6258111;23;20171;-90
2022/06/23 06:51:13;;;;;;;25.95;16.25;;;;;;;;;;6260684;22;20150;-90
2022/06/23 06:54:20;;;;;;;33.00;18.10;;;;;;;;;;6260330;22;20170;-90
2022/06/23 06:57:31;;;;;;;37.47;20.27;;;;;;;;;;6261454;22;20170;-89
2022/06/23 07:00:46;;;;;;;30.70;17.58;;;;;;;;;;6261226;22;20166;-90
2022/06/23 07:03:55;;;;;;;26.23;16.40;;;;;;;;;;6257597;22;20163;-90
2022/06/23 07:07:03;;;;;;;28.80;17.50;;;;;;;;;;6258011;22;20167;-90
2022/06/23 07:10:10;;;;;;;28.20;18.45;;;;;;;;;;6272103;22;20189;-90
2022/06/23 07:13:16;;;;;;;30.52;18.30;;;;;;;;;;6270453;22;20173;-90
2022/06/23 07:16:23;;;;;;;40.22;20.70;;;;;;;;;;6270842;22;20181;-89
2022/06/23 07:19:35;;;;;;;33.40;19.48;;;;;;;;;;6274473;22;20162;-90
2022/06/23 07:22:44;;;;;;;31.67;19.92;;;;;;;;;;6281515;22;20181;-90
2022/06/23 07:25:53;;;;;;;33.35;21.20;;;;;;;;;;6275954;22;20170;-89
2022/06/23 07:29:02;;;;;;;31.63;19.23;;;;;;;;;;6276226;22;20197;-91
2022/06/23 07:32:13;;;;;;;32.65;21.02;;;;;;;;;;6274346;22;20509;-89
2022/06/23 07:35:24;;;;;;;31.10;21.10;;;;;;;;;;6275065;22;20193;-89
2022/06/23 07:38:31;;;;;;;33.13;20.75;;;;;;;;;;6271306;22;20596;-90
2022/06/23 07:41:41;;;;;;;35.42;21.60;;;;;;;;;;6272184;22;20177;-90
2022/06/23 07:44:49;;;;;;;33.28;20.65;;;;;;;;;;6270974;22;20166;-90
2022/06/23 07:47:54;;;;;;;34.08;20.80;;;;;;;;;;6273032;22;20259;-91
2022/06/23 07:51:03;;;;;;;32.47;19.95;;;;;;;;;;6271653;22;20213;-90
2022/06/23 07:54:11;;;;;;;34.33;19.23;;;;;;;;;;6272695;22;20146;-89
2022/06/23 07:57:17;;;;;;;30.52;18.13;;;;;;;;;;6272509;22;20166;-91
2022/06/23 08:00:22;;;;;;;30.60;20.08;;;;;;;;;;6253562;22;20166;-91
2022/06/23 09:28:45;;;;;;;22.85;11.75;;;;;;;;;;6283519;22;20273;-91
2022/06/23 09:31:58;;;;;;;14.45;10.43;;;;;;;;;;6271133;22;20267;-91
2022/06/23 09:35:14;;;;;;;17.65;10.60;;;;;;;;;;6275701;22;20169;-91
2022/06/23 09:38:37;;;;;;;16.10;10.85;;;;;;;;;;6272988;22;20170;-92
2022/06/23 09:42:01;;;;;;;15.52;9.85;;;;;;;;;;6273521;22;20334;-89
2022/06/23 09:45:15;;;;;;;15.65;10.00;;;;;;;;;;6275436;22;20166;-91
2022/06/23 09:48:30;;;;;;;14.23;8.07;;;;;;;;;;6272858;22;20164;-90
2022/06/23 09:51:52;;;;;;;16.75;9.25;;;;;;;;;;6271494;22;20165;-90
2022/06/23 09:55:13;;;;;;;15.32;9.15;;;;;;;;;;6272988;22;20153;-91
2022/06/23 09:58:40;;;;;;;14.15;9.20;;;;;;;;;;6272741;22;20180;-91
2022/06/23 10:01:48;;;;;;;20.63;9.50;;;;;;;;;;6273542;22;20181;-91
2022/06/23 10:05:02;;;;;;;10.60;7.35;;;;;;;;;;6273067;22;20165;-90
2022/06/23 10:08:15;;;;;;;12.73;7.75;;;;;;;;;;6273145;22;20212;-90
2022/06/23 10:11:45;;;;;;;15.40;7.93;;;;;;;;;;6273177;22;20165;-91
2022/06/23 10:15:04;;;;;;;12.13;7.57;;;;;;;;;;6269916;22;20176;-91
2022/06/23 10:18:20;;;;;;;12.73;7.22;;;;;;;;;;6272345;22;20189;-91
2022/06/23 10:21:33;;;;;;;12.15;6.72;;;;;;;;;;6272515;22;20177;-92
2022/06/23 10:24:51;;;;;;;10.57;6.60;;;;;;;;;;6273546;22;20247;-90
2022/06/23 10:28:16;;;;;;;10.65;6.15;;;;;;;;;;6260497;22;20193;-91
2022/06/23 10:31:31;;;;;;;9.88;6.82;;;;;;;;;;6258549;23;20170;-92
2022/06/23 10:34:54;;;;;;;11.60;7.18;;;;;;;;;;6260668;22;20174;-89
2022/06/23 10:38:21;;;;;;;12.30;7.13;;;;;;;;;;6259097;22;20166;-90
2022/06/23 10:41:40;;;;;;;12.23;7.32;;;;;;;;;;6259404;22;20169;-91
2022/06/23 10:44:58;;;;;;;13.73;7.57;;;;;;;;;;6259940;23;20166;-91
2022/06/23 10:48:37;;;;;;;17.83;7.28;;;;;;;;;;6260113;22;20269;-91
2022/06/23 10:51:54;;;;;;;19.98;6.55;;;;;;;;;;6138129;23;20172;-91
2022/06/23 10:55:06;;;;;;;9.70;6.15;;;;;;;;;;6125275;22;20169;-90
2022/06/23 10:58:42;;;;;;;14.38;6.53;;;;;;;;;;6261795;23;20166;-92
2022/06/23 11:02:04;;;;;;;10.25;5.60;;;;;;;;;;6263048;23;20153;-92
2022/06/23 11:05:26;;;;;;;13.13;6.15;;;;;;;;;;6265538;22;20169;-92
2022/06/23 11:08:49;;;;;;;9.02;5.40;;;;;;;;;;6265428;22;20158;-91
2022/06/23 11:12:13;;;;;;;12.98;5.70;;;;;;;;;;6265590;22;20163;-93
2022/06/23 11:15:26;;;;;;;13.45;5.45;;;;;;;;;;6262114;22;20165;-89
2022/06/23 11:18:38;;;;;;;10.10;5.80;;;;;;;;;;6260898;22;20230;-92
2022/06/23 11:21:49;;;;;;;12.32;5.80;;;;;;;;;;6260776;22;20146;-91
2022/06/23 11:25:04;;;;;;;8.55;5.13;;;;;;;;;;6263983;22;20197;-92
2022/06/23 11:28:16;;;;;;;11.43;5.22;;;;;;;;;;6277366;22;20257;-93
2022/06/23 11:31:44;;;;;;;8.48;5.07;;;;;;;;;;6276343;22;20202;-92
2022/06/23 11:35:02;;;;;;;9.77;4.68;;;;;;;;;;6275919;22;20174;-91
2022/06/23 11:38:16;;;;;;;12.15;5.15;;;;;;;;;;6276326;22;20173;-90
2022/06/23 11:41:33;;;;;;;9.23;4.68;;;;;;;;;;6275151;22;20169;-91
2022/06/23 11:44:56;;;;;;;11.50;5.32;;;;;;;;;;6277159;22;20153;-90
2022/06/23 11:48:06;;;;;;;10.32;5.50;;;;;;;;;;6277602;22;20188;-91
2022/06/23 11:51:18;;;;;;;10.82;5.70;;;;;;;;;;6273124;22;20165;-91
2022/06/23 11:54:32;;;;;;;13.13;5.28;;;;;;;;;;6276273;22;20216;-91
2022/06/23 11:57:44;;;;;;;12.90;5.10;;;;;;;;;;6272535;22;20169;-90
2022/06/23 12:00:54;;;;;;;13.52;4.63;;;;;;;;;;6272309;22;20161;-90
2022/06/23 12:04:26;;;;;;;11.85;4.55;;;;;;;;;;6272035;22;20273;-90
2022/06/23 12:07:58;;;;;;;14.95;4.53;;;;;;;;;;6272408;22;20230;-91
2022/06/23 12:11:04;;;;;;;9.50;4.10;;;;;;;;;;6240036;22;20208;-91
2022/06/23 12:14:11;;;;;;;9.75;3.70;;;;;;;;;;6270084;22;20157;-91
2022/06/23 12:17:28;;;;;;;10.68;3.72;;;;;;;;;;6268089;22;20169;-91
2022/06/23 12:20:36;;;;;;;12.75;3.70;;;;;;;;;;6268885;22;20181;-90
2022/06/23 12:23:47;;;;;;;6.68;3.45;;;;;;;;;;6269549;22;20204;-91
2022/06/23 12:26:57;;;;;;;6.28;3.28;;;;;;;;;;6268524;22;20188;-91
2022/06/23 12:30:06;;;;;;;4.28;3.20;;;;;;;;;;6272551;22;20273;-90
2022/06/23 12:33:15;;;;;;;8.50;3.28;;;;;;;;;;6271390;22;20259;-91
2022/06/23 12:36:27;;;;;;;7.20;3.38;;;;;;;;;;6271655;22;20192;-89
2022/06/23 12:39:36;;;;;;;6.10;3.60;;;;;;;;;;6271818;22;20170;-91
2022/06/23 12:42:44;;;;;;;6.38;3.20;;;;;;;;;;6270114;22;20224;-88
2022/06/23 12:45:57;;;;;;;8.85;3.53;;;;;;;;;;6272052;22;20165;-88
2022/06/23 12:49:24;;;;;;;7.63;3.30;;;;;;;;;;6273201;22;20173;-89
2022/06/23 12:52:44;;;;;;;8.88;3.95;;;;;;;;;;6271373;22;20280;-87
2022/06/23 12:56:04;;;;;;;6.75;3.42;;;;;;;;;;6269686;22;20509;-90
2022/06/23 12:59:11;;;;;;;7.57;3.78;;;;;;;;;;6272686;22;20541;-89
2022/06/23 13:02:21;;;;;;;10.63;3.75;;;;;;;;;;6271291;22;20584;-89
2022/06/23 13:05:32;;;;;;;7.35;3.40;;;;;;;;;;6271621;22;20165;-90
2022/06/23 13:08:39;;;;;;;8.68;3.38;;;;;;;;;;6269861;22;20164;-90
2022/06/23 13:11:50;;;;;;;8.00;3.25;;;;;;;;;;6271916;22;20176;-90
2022/06/23 13:14:56;;;;;;;6.60;3.47;;;;;;;;;;6273136;22;20173;-89
2022/06/23 13:18:04;;;;;;;9.85;3.72;;;;;;;;;;6277563;22;20675;-90
2022/06/23 13:21:11;;;;;;;7.32;3.30;;;;;;;;;;6274790;22;20184;-90
2022/06/23 13:24:19;;;;;;;11.25;3.30;;;;;;;;;;6273793;22;20255;-90
2022/06/23 13:27:26;;;;;;;5.65;2.97;;;;;;;;;;6274987;22;20227;-89
2022/06/23 13:30:40;;;;;;;5.57;3.10;;;;;;;;;;6273138;22;20161;-89
2022/06/23 13:33:48;;;;;;;7.13;3.15;;;;;;;;;;6272733;22;20173;-90
2022/06/23 13:36:55;;;;;;;7.05;2.97;;;;;;;;;;6274486;22;20161;-89
2022/06/23 13:40:04;;;;;;;6.78;2.70;;;;;;;;;;6271904;22;20170;-90
2022/06/23 13:43:13;;;;;;;7.78;2.92;;;;;;;;;;6270318;22;20184;-91
2022/06/23 13:46:24;;;;;;;6.72;2.80;;;;;;;;;;6272428;22;20169;-91
2022/06/23 13:49:35;;;;;;;6.47;2.92;;;;;;;;;;6271853;22;20184;-90
2022/06/23 13:52:45;;;;;;;6.25;3.13;;;;;;;;;;6273331;22;20595;-90
2022/06/23 13:56:00;;;;;;;8.38;3.05;;;;;;;;;;6272822;22;20268;-90
2022/06/23 13:59:11;;;;;;;7.55;2.85;;;;;;;;;;6273034;22;20256;-90
2022/06/23 14:02:20;;;;;;;4.97;3.00;;;;;;;;;;6273612;22;20228;-91
2022/06/23 14:05:29;;;;;;;6.22;2.97;;;;;;;;;;6273290;22;20218;-90
2022/06/23 14:08:36;;;;;;;7.35;2.53;;;;;;;;;;6290615;22;20263;-89
2022/06/23 14:11:44;;;;;;;5.57;2.72;;;;;;;;;;6272986;22;20173;-90
2022/06/23 14:14:53;;;;;;;8.25;4.20;;;;;;;;;;6272238;22;20169;-89
2022/06/23 14:18:01;;;;;;;6.68;2.70;;;;;;;;;;6273163;22;20276;-90
2022/06/23 14:21:14;;;;;;;4.43;2.72;;;;;;;;;;6272956;22;20172;-90
2022/06/23 14:24:21;;;;;;;6.07;2.72;;;;;;;;;;6272859;22;20189;-89
2022/06/23 14:27:31;;;;;;;5.35;3.03;;;;;;;;;;6272327;22;20184;-90
2022/06/23 14:30:44;;;;;;;6.18;3.13;;;;;;;;;;6274455;22;20178;-90
2022/06/23 14:33:58;;;;;;;6.60;3.92;;;;;;;;;;6272585;22;20210;-90
2022/06/23 14:37:05;;;;;;;6.45;2.80;;;;;;;;;;6273298;22;20177;-89
2022/06/23 14:40:16;;;;;;;7.05;2.97;;;;;;;;;;6272755;22;20180;-89
2022/06/23 14:43:33;;;;;;;5.20;2.40;;;;;;;;;;6271843;22;20189;-89
2022/06/23 14:46:45;;;;;;;6.18;2.90;;;;;;;;;;6271085;22;20169;-90
2022/06/23 14:49:59;;;;;;;5.78;2.80;;;;;;;;;;6273410;22;20172;-89
2022/06/23 14:53:08;;;;;;;4.47;2.75;;;;;;;;;;6272532;22;20168;-90
2022/06/23 14:56:18;;;;;;;7.10;3.08;;;;;;;;;;6270132;22;20169;-90
2022/06/23 14:59:27;;;;;;;8.27;2.97;;;;;;;;;;6270249;22;20537;-90
2022/06/23 15:02:38;;;;;;;5.88;2.80;;;;;;;;;;6289568;22;20177;-87
2022/06/23 15:05:48;;;;;;;5.05;2.78;;;;;;;;;;6273291;22;20185;-89
2022/06/23 15:08:58;;;;;;;8.88;3.10;;;;;;;;;;6273448;22;20165;-88
2022/06/23 15:12:08;;;;;;;5.07;2.92;;;;;;;;;;6273714;22;20153;-88
2022/06/23 15:15:18;;;;;;;6.65;3.08;;;;;;;;;;6271925;22;20178;-88
2022/06/23 15:18:38;;;;;;;9.75;2.88;;;;;;;;;;6272386;22;20165;-87
2022/06/23 15:25:12;;;;;;;6.15;2.90;;;;;;;;;;6271139;22;20206;-89
2022/06/23 15:28:19;;;;;;;6.10;2.67;;;;;;;;;;6273268;22;20185;-89
2022/06/23 15:31:27;;;;;;;5.57;2.85;;;;;;;;;;6271203;22;20178;-86
2022/06/23 15:34:42;;;;;;;5.65;2.92;;;;;;;;;;6271530;22;20166;-90
2022/06/23 15:37:51;;;;;;;8.55;3.10;;;;;;;;;;6272264;22;20216;-89
2022/06/23 15:41:06;;;;;;;5.65;2.78;;;;;;;;;;6289770;22;20174;-89
2022/06/23 15:44:23;;;;;;;7.25;3.45;;;;;;;;;;6272268;22;20201;-89
2022/06/23 15:47:31;;;;;;;5.70;2.78;;;;;;;;;;6272701;22;20170;-89
2022/06/23 15:50:42;;;;;;;4.40;2.70;;;;;;;;;;6272174;22;20168;-89
2022/06/23 15:53:50;;;;;;;7.07;3.00;;;;;;;;;;6270141;22;20169;-88
2022/06/23 15:56:59;;;;;;;5.40;3.10;;;;;;;;;;6273176;22;20162;-89
2022/06/23 16:00:12;;;;;;;8.27;3.35;;;;;;;;;;6270684;22;20189;-89
2022/06/23 16:03:19;;;;;;;6.63;3.55;;;;;;;;;;6290361;22;20153;-87
2022/06/23 16:06:29;;;;;;;6.63;3.65;;;;;;;;;;6289116;22;20300;-89
2022/06/23 16:13:52;;;;;;;7.25;4.20;;;;;;;;;;6290664;22;20154;-90
2022/06/23 16:17:02;;;;;;;9.68;3.72;;;;;;;;;;6271912;22;20246;-88
2022/06/23 16:20:09;;;;;;;11.60;3.50;;;;;;;;;;6272271;22;20229;-87
2022/06/23 16:23:19;;;;;;;6.65;3.72;;;;;;;;;;6271652;22;20165;-90
2022/06/23 16:26:29;;;;;;;8.88;3.65;;;;;;;;;;6272311;22;20224;-89
2022/06/23 16:29:41;;;;;;;5.93;3.50;;;;;;;;;;6273247;22;20158;-89
2022/06/23 16:32:52;;;;;;;11.60;3.53;;;;;;;;;;6274794;22;20209;-90
2022/06/23 16:35:59;;;;;;;9.80;3.50;;;;;;;;;;6272148;22;20285;-87
2022/06/23 16:39:11;;;;;;;8.52;5.47;;;;;;;;;;6272284;22;20242;-87
2022/06/23 16:42:29;;;;;;;7.10;3.25;;;;;;;;;;6271853;22;20216;-88
2022/06/23 16:45:38;;;;;;;8.77;4.28;;;;;;;;;;6272223;22;20197;-90
2022/06/23 16:48:48;;;;;;;7.13;3.80;;;;;;;;;;6271374;22;20192;-89
2022/06/23 16:51:57;;;;;;;8.73;3.67;;;;;;;;;;6281315;22;20162;-89
2022/06/23 16:55:15;;;;;;;7.32;3.80;;;;;;;;;;6277591;22;20212;-90
2022/06/23 16:58:25;;;;;;;6.75;3.35;;;;;;;;;;6275282;22;20162;-89
2022/06/23 17:01:32;;;;;;;7.18;4.13;;;;;;;;;;6280358;22;20169;-87
2022/06/23 17:04:52;;;;;;;8.00;4.40;;;;;;;;;;6273877;22;20197;-88
2022/06/23 17:08:01;;;;;;;6.80;3.70;;;;;;;;;;6274089;22;20174;-89
2022/06/23 17:11:10;;;;;;;5.10;3.72;;;;;;;;;;6272637;22;20278;-90
2022/06/23 17:14:16;;;;;;;18.00;3.95;;;;;;;;;;6271944;22;20181;-87
2022/06/23 17:17:37;;;;;;;7.35;4.47;;;;;;;;;;6272567;22;20165;-89
2022/06/23 17:20:49;;;;;;;7.28;3.60;;;;;;;;;;6274233;22;20165;-89
2022/06/23 17:23:56;;;;;;;8.90;3.70;;;;;;;;;;6273049;22;20169;-91
2022/06/23 17:27:09;;;;;;;6.28;3.38;;;;;;;;;;6273198;22;20209;-90
2022/06/23 17:30:19;;;;;;;7.40;3.92;;;;;;;;;;6275330;22;20602;-89
2022/06/23 17:33:27;;;;;;;10.48;3.58;;;;;;;;;;6274731;22;20170;-91
2022/06/23 17:36:40;;;;;;;8.35;3.35;;;;;;;;;;6275767;22;20157;-89
2022/06/23 17:46:44;;;;;;;7.97;3.30;;;;;;;;;;6272046;22;20245;-88
2022/06/23 17:49:50;;;;;;;10.90;3.65;;;;;;;;;;6274905;22;20208;-89
2022/06/23 17:52:57;;;;;;;6.47;2.95;;;;;;;;;;6270822;22;20170;-88
2022/06/23 17:56:02;;;;;;;7.32;3.80;;;;;;;;;;6273951;22;20171;-90
2022/06/23 17:59:13;;;;;;;7.50;4.00;;;;;;;;;;6273293;22;20256;-91
2022/06/23 18:02:21;;;;;;;8.95;3.63;;;;;;;;;;6270641;22;20170;-91
2022/06/23 18:05:28;;;;;;;8.55;4.00;;;;;;;;;;6278906;22;20257;-88
2022/06/23 18:08:37;;;;;;;7.47;3.67;;;;;;;;;;6270628;22;20255;-89
2022/06/23 18:11:43;;;;;;;8.10;3.40;;;;;;;;;;6271354;22;20166;-89
2022/06/23 18:14:57;;;;;;;6.40;3.13;;;;;;;;;;6273220;22;20312;-89
2022/06/23 18:18:07;;;;;;;8.10;3.20;;;;;;;;;;6271829;22;20170;-90
2022/06/23 19:22:53;;;;;;;6.43;3.30;;;;;;;;;;6273904;22;20214;-90
2022/06/23 19:26:01;;;;;;;9.43;3.83;;;;;;;;;;6272699;22;20184;-89
2022/06/23 19:29:11;;;;;;;8.13;3.55;;;;;;;;;;6274502;22;20193;-89
2022/06/23 19:32:21;;;;;;;8.60;4.18;;;;;;;;;;6272455;22;20165;-89
2022/06/23 19:35:30;;;;;;;9.25;3.50;;;;;;;;;;6273649;22;20165;-89
2022/06/23 19:38:45;;;;;;;6.57;3.90;;;;;;;;;;6273540;22;20623;-89
2022/06/23 19:41:54;;;;;;;12.77;4.55;;;;;;;;;;6272473;22;20170;-88
2022/06/23 19:45:15;;;;;;;9.48;4.20;;;;;;;;;;6274126;22;20203;-90
2022/06/23 19:48:23;;;;;;;11.25;4.68;;;;;;;;;;6272549;22;20150;-90
2022/06/23 19:51:30;;;;;;;7.82;4.20;;;;;;;;;;6274435;22;20238;-88
2022/06/23 19:54:42;;;;;;;8.57;3.90;;;;;;;;;;6273767;22;20186;-88
2022/06/23 19:57:53;;;;;;;8.20;4.50;;;;;;;;;;6272401;22;20161;-88
2022/06/23 20:01:05;;;;;;;9.95;4.43;;;;;;;;;;6270483;22;20474;-90
2022/06/23 20:04:17;;;;;;;14.20;5.70;;;;;;;;;;6272308;22;20157;-89
2022/06/23 20:07:28;;;;;;;7.82;4.97;;;;;;;;;;6272270;22;20161;-89
2022/06/23 20:10:36;;;;;;;8.65;5.03;;;;;;;;;;6270518;22;20289;-90
2022/06/23 20:13:47;;;;;;;11.10;4.97;;;;;;;;;;6272433;22;20161;-89
2022/06/23 20:16:55;;;;;;;11.35;5.10;;;;;;;;;;6273089;22;20173;-90
2022/06/23 20:20:07;;;;;;;8.90;4.95;;;;;;;;;;6272140;22;20621;-90
2022/06/23 20:23:19;;;;;;;7.57;5.20;;;;;;;;;;6273385;22;20271;-90
2022/06/23 20:26:32;;;;;;;12.32;4.93;;;;;;;;;;6273870;22;20208;-88
2022/06/23 20:29:45;;;;;;;8.80;4.95;;;;;;;;;;6274546;22;20178;-90
2022/06/23 20:33:08;;;;;;;10.73;5.53;;;;;;;;;;6275229;22;20203;-89
2022/06/23 20:36:17;;;;;;;13.00;5.88;;;;;;;;;;6277331;22;20226;-89
2022/06/23 20:39:28;;;;;;;8.93;5.22;;;;;;;;;;6273430;22;20270;-89
2022/06/23 20:42:51;;;;;;;10.15;5.50;;;;;;;;;;6274147;22;20161;-90
2022/06/23 20:46:05;;;;;;;8.70;5.60;;;;;;;;;;6276890;22;20196;-90
2022/06/23 20:49:36;;;;;;;10.68;5.47;;;;;;;;;;6274153;22;20165;-90
2022/06/23 20:52:47;;;;;;;9.02;5.35;;;;;;;;;;6272671;22;20181;-89
2022/06/23 20:55:56;;;;;;;9.60;4.75;;;;;;;;;;6277414;22;20193;-88
2022/06/23 20:59:08;;;;;;;6.97;4.30;;;;;;;;;;6276285;22;20596;-89
2022/06/23 21:02:18;;;;;;;10.00;3.78;;;;;;;;;;6280090;22;20173;-90
2022/06/23 21:05:28;;;;;;;10.13;4.25;;;;;;;;;;6280831;22;20578;-89
2022/06/23 21:08:37;;;;;;;4.97;3.72;;;;;;;;;;6280533;22;20171;-90
2022/06/23 21:11:47;;;;;;;5.57;3.92;;;;;;;;;;6280040;22;20149;-90
2022/06/23 23:39:03;;;;;;;4.65;2.90;;;;;;;;;;6286245;22;20210;-89
2022/06/23 23:42:09;;;;;;;7.53;3.30;;;;;;;;;;6271317;22;20169;-88
2022/06/23 23:45:14;;;;;;;7.30;3.60;;;;;;;;;;6273989;22;20230;-89
2022/06/23 23:48:20;;;;;;;4.32;2.88;;;;;;;;;;6270242;22;20162;-88
2022/06/23 23:51:25;;;;;;;4.75;2.80;;;;;;;;;;6272408;22;20146;-89
2022/06/23 23:54:30;;;;;;;4.88;2.72;;;;;;;;;;6271449;22;20242;-89
2022/06/23 23:57:37;;;;;;;7.45;2.72;;;;;;;;;;6272106;22;20647;-89
